sensor_id;sensor_type;location;lat;lon;timestamp;P1;durP1;ratioP1;P2;durP2;ratioP2
39016;SDS011;24784;45.582;5.276;2022-10-31T00:00:21;19.90;;;8.80;;
39016;SDS011;24784;45.582;5.276;2022-10-31T00:02:47;21.13;;;9.35;;
39016;SDS011;24784;45.582;5.276;2022-10-31T00:05:13;26.52;;;9.00;;
39016;SDS011;24784;45.582;5.276;2022-10-31T00:07:38;23.40;;;9.02;;
39016;SDS011;24784;45.582;5.276;2022-10-31T00:10:04;21.98;;;10.30;;
39016;SDS011;24784;45.582;5.276;2022-10-31T00:12:31;24.05;;;8.93;;
39016;SDS011;24784;45.582;5.276;2022-10-31T00:14:56;28.75;;;9.45;;
39016;SDS011;24784;45.582;5.276;2022-10-31T00:17:22;29.88;;;10.02;;
39016;SDS011;24784;45.582;5.276;2022-10-31T00:19:48;22.77;;;10.30;;
39016;SDS011;24784;45.582;5.276;2022-10-31T00:22:13;18.60;;;8.45;;
39016;SDS011;24784;45.582;5.276;2022-10-31T00:24:39;26.42;;;9.82;;
39016;SDS011;24784;45.582;5.276;2022-10-31T00:27:05;24.48;;;9.55;;
39016;SDS011;24784;45.582;5.276;2022-10-31T00:29:31;21.17;;;8.60;;
39016;SDS011;24784;45.582;5.276;2022-10-31T00:31:56;22.23;;;9.18;;
39016;SDS011;24784;45.582;5.276;2022-10-31T00:34:22;20.52;;;8.82;;
39016;SDS011;24784;45.582;5.276;2022-10-31T00:36:48;19.65;;;8.32;;
39016;SDS011;24784;45.582;5.276;2022-10-31T00:39:13;25.08;;;9.60;;
39016;SDS011;24784;45.582;5.276;2022-10-31T00:41:39;27.40;;;10.75;;
39016;SDS011;24784;45.582;5.276;2022-10-31T00:44:05;25.92;;;10.13;;
39016;SDS011;24784;45.582;5.276;2022-10-31T00:46:30;23.38;;;11.23;;
39016;SDS011;24784;45.582;5.276;2022-10-31T00:48:56;22.98;;;10.00;;
39016;SDS011;24784;45.582;5.276;2022-10-31T00:51:22;20.67;;;8.93;;
39016;SDS011;24784;45.582;5.276;2022-10-31T00:53:47;26.13;;;9.88;;
39016;SDS011;24784;45.582;5.276;2022-10-31T00:56:13;30.55;;;9.88;;
39016;SDS011;24784;45.582;5.276;2022-10-31T00:58:39;25.17;;;10.10;;
39016;SDS011;24784;45.582;5.276;2022-10-31T01:01:04;21.77;;;9.63;;
39016;SDS011;24784;45.582;5.276;2022-10-31T01:03:31;26.27;;;10.75;;
39016;SDS011;24784;45.582;5.276;2022-10-31T01:08:25;25.67;;;10.90;;
39016;SDS011;24784;45.582;5.276;2022-10-31T01:11:05;23.90;;;9.90;;
39016;SDS011;24784;45.582;5.276;2022-10-31T01:13:38;28.77;;;9.88;;
39016;SDS011;24784;45.582;5.276;2022-10-31T01:16:05;22.92;;;10.27;;
39016;SDS011;24784;45.582;5.276;2022-10-31T01:18:32;24.55;;;9.57;;
39016;SDS011;24784;45.582;5.276;2022-10-31T01:21:04;19.48;;;10.07;;
39016;SDS011;24784;45.582;5.276;2022-10-31T01:23:35;25.27;;;10.00;;
39016;SDS011;24784;45.582;5.276;2022-10-31T01:26:02;21.38;;;10.35;;
39016;SDS011;24784;45.582;5.276;2022-10-31T01:28:38;24.45;;;10.18;;
39016;SDS011;24784;45.582;5.276;2022-10-31T01:31:08;27.02;;;9.90;;
39016;SDS011;24784;45.582;5.276;2022-10-31T01:33:34;25.60;;;10.25;;
39016;SDS011;24784;45.582;5.276;2022-10-31T01:36:01;28.88;;;10.75;;
39016;SDS011;24784;45.582;5.276;2022-10-31T01:38:27;22.65;;;10.95;;
39016;SDS011;24784;45.582;5.276;2022-10-31T01:40:53;23.17;;;10.38;;
39016;SDS011;24784;45.582;5.276;2022-10-31T01:43:19;24.45;;;10.00;;
39016;SDS011;24784;45.582;5.276;2022-10-31T01:45:52;29.80;;;10.57;;
39016;SDS011;24784;45.582;5.276;2022-10-31T01:48:20;19.52;;;10.27;;
39016;SDS011;24784;45.582;5.276;2022-10-31T01:50:52;36.50;;;10.32;;
39016;SDS011;24784;45.582;5.276;2022-10-31T01:53:19;22.17;;;10.48;;
39016;SDS011;24784;45.582;5.276;2022-10-31T01:55:46;23.58;;;9.77;;
39016;SDS011;24784;45.582;5.276;2022-10-31T01:58:17;23.55;;;10.00;;
39016;SDS011;24784;45.582;5.276;2022-10-31T02:00:48;19.90;;;9.45;;
39016;SDS011;24784;45.582;5.276;2022-10-31T02:03:16;24.00;;;10.57;;
39016;SDS011;24784;45.582;5.276;2022-10-31T02:05:45;27.23;;;10.07;;
39016;SDS011;24784;45.582;5.276;2022-10-31T02:08:28;22.77;;;10.27;;
39016;SDS011;24784;45.582;5.276;2022-10-31T02:10:59;31.92;;;10.07;;
39016;SDS011;24784;45.582;5.276;2022-10-31T02:13:26;27.73;;;10.65;;
39016;SDS011;24784;45.582;5.276;2022-10-31T02:15:54;22.83;;;10.63;;
39016;SDS011;24784;45.582;5.276;2022-10-31T02:18:22;25.45;;;10.85;;
39016;SDS011;24784;45.582;5.276;2022-10-31T02:24:40;32.30;;;10.55;;
39016;SDS011;24784;45.582;5.276;2022-10-31T02:34:58;35.13;;;10.18;;
39016;SDS011;24784;45.582;5.276;2022-10-31T02:40:14;28.35;;;10.68;;
39016;SDS011;24784;45.582;5.276;2022-10-31T02:43:07;27.67;;;10.98;;
39016;SDS011;24784;45.582;5.276;2022-10-31T02:45:44;31.77;;;11.18;;
39016;SDS011;24784;45.582;5.276;2022-10-31T02:48:35;26.65;;;11.02;;
39016;SDS011;24784;45.582;5.276;2022-10-31T02:51:04;25.63;;;10.25;;
39016;SDS011;24784;45.582;5.276;2022-10-31T02:53:33;22.40;;;11.27;;
39016;SDS011;24784;45.582;5.276;2022-10-31T02:56:01;23.20;;;11.35;;
39016;SDS011;24784;45.582;5.276;2022-10-31T02:58:49;27.38;;;11.80;;
39016;SDS011;24784;45.582;5.276;2022-10-31T03:07:23;25.00;;;10.98;;
39016;SDS011;24784;45.582;5.276;2022-10-31T03:12:47;37.58;;;11.32;;
39016;SDS011;24784;45.582;5.276;2022-10-31T03:15:27;26.13;;;10.45;;
39016;SDS011;24784;45.582;5.276;2022-10-31T03:17:59;22.98;;;10.85;;
39016;SDS011;24784;45.582;5.276;2022-10-31T03:20:42;23.63;;;9.73;;
39016;SDS011;24784;45.582;5.276;2022-10-31T03:23:13;31.50;;;9.90;;
39016;SDS011;24784;45.582;5.276;2022-10-31T03:25:42;28.75;;;10.35;;
39016;SDS011;24784;45.582;5.276;2022-10-31T03:28:10;30.02;;;10.25;;
39016;SDS011;24784;45.582;5.276;2022-10-31T03:30:38;23.30;;;10.52;;
39016;SDS011;24784;45.582;5.276;2022-10-31T03:33:10;35.45;;;11.07;;
39016;SDS011;24784;45.582;5.276;2022-10-31T03:35:41;23.35;;;9.27;;
39016;SDS011;24784;45.582;5.276;2022-10-31T03:38:09;23.20;;;9.73;;
39016;SDS011;24784;45.582;5.276;2022-10-31T03:40:36;26.25;;;9.68;;
39016;SDS011;24784;45.582;5.276;2022-10-31T03:43:06;25.20;;;9.70;;
39016;SDS011;24784;45.582;5.276;2022-10-31T03:45:36;23.38;;;9.60;;
39016;SDS011;24784;45.582;5.276;2022-10-31T03:48:08;32.25;;;10.93;;
39016;SDS011;24784;45.582;5.276;2022-10-31T03:50:38;23.08;;;9.68;;
39016;SDS011;24784;45.582;5.276;2022-10-31T03:56:22;23.00;;;10.38;;
39016;SDS011;24784;45.582;5.276;2022-10-31T04:01:43;24.27;;;10.35;;
39016;SDS011;24784;45.582;5.276;2022-10-31T04:04:12;29.42;;;9.55;;
39016;SDS011;24784;45.582;5.276;2022-10-31T04:06:39;31.40;;;10.57;;
39016;SDS011;24784;45.582;5.276;2022-10-31T04:09:07;32.97;;;10.45;;
39016;SDS011;24784;45.582;5.276;2022-10-31T04:11:36;24.17;;;10.27;;
39016;SDS011;24784;45.582;5.276;2022-10-31T04:14:05;28.75;;;9.52;;
39016;SDS011;24784;45.582;5.276;2022-10-31T04:16:33;22.42;;;9.35;;
39016;SDS011;24784;45.582;5.276;2022-10-31T04:18:59;25.20;;;10.63;;
39016;SDS011;24784;45.582;5.276;2022-10-31T04:21:28;27.63;;;11.00;;
39016;SDS011;24784;45.582;5.276;2022-10-31T04:23:55;27.45;;;9.80;;
39016;SDS011;24784;45.582;5.276;2022-10-31T04:26:21;20.02;;;9.18;;
39016;SDS011;24784;45.582;5.276;2022-10-31T04:28:47;26.10;;;10.25;;
39016;SDS011;24784;45.582;5.276;2022-10-31T04:31:13;25.77;;;10.13;;
39016;SDS011;24784;45.582;5.276;2022-10-31T04:33:39;24.58;;;10.75;;
39016;SDS011;24784;45.582;5.276;2022-10-31T04:36:04;24.27;;;10.55;;
39016;SDS011;24784;45.582;5.276;2022-10-31T04:38:30;34.60;;;10.73;;
39016;SDS011;24784;45.582;5.276;2022-10-31T04:40:56;30.67;;;10.10;;
39016;SDS011;24784;45.582;5.276;2022-10-31T04:43:21;30.02;;;10.02;;
39016;SDS011;24784;45.582;5.276;2022-10-31T04:45:48;24.98;;;10.77;;
39016;SDS011;24784;45.582;5.276;2022-10-31T04:48:13;19.52;;;10.57;;
39016;SDS011;24784;45.582;5.276;2022-10-31T04:50:39;18.80;;;8.60;;
39016;SDS011;24784;45.582;5.276;2022-10-31T04:53:05;22.13;;;9.70;;
39016;SDS011;24784;45.582;5.276;2022-10-31T04:55:31;25.17;;;9.70;;
39016;SDS011;24784;45.582;5.276;2022-10-31T04:57:57;29.65;;;10.30;;
39016;SDS011;24784;45.582;5.276;2022-10-31T05:00:22;32.05;;;10.07;;
39016;SDS011;24784;45.582;5.276;2022-10-31T05:02:49;25.98;;;10.27;;
39016;SDS011;24784;45.582;5.276;2022-10-31T05:05:17;23.95;;;9.15;;
39016;SDS011;24784;45.582;5.276;2022-10-31T05:07:45;25.13;;;10.05;;
39016;SDS011;24784;45.582;5.276;2022-10-31T05:10:13;21.25;;;10.10;;
39016;SDS011;24784;45.582;5.276;2022-10-31T05:12:47;25.35;;;10.80;;
39016;SDS011;24784;45.582;5.276;2022-10-31T05:15:13;27.25;;;9.95;;
39016;SDS011;24784;45.582;5.276;2022-10-31T05:17:39;28.17;;;9.43;;
39016;SDS011;24784;45.582;5.276;2022-10-31T05:20:05;33.17;;;10.25;;
39016;SDS011;24784;45.582;5.276;2022-10-31T05:22:31;27.45;;;9.85;;
39016;SDS011;24784;45.582;5.276;2022-10-31T05:24:57;22.17;;;9.77;;
39016;SDS011;24784;45.582;5.276;2022-10-31T05:27:23;29.77;;;10.77;;
39016;SDS011;24784;45.582;5.276;2022-10-31T05:29:49;26.00;;;10.32;;
39016;SDS011;24784;45.582;5.276;2022-10-31T05:32:14;22.67;;;10.68;;
39016;SDS011;24784;45.582;5.276;2022-10-31T05:34:40;27.70;;;10.23;;
39016;SDS011;24784;45.582;5.276;2022-10-31T05:37:06;22.30;;;10.05;;
39016;SDS011;24784;45.582;5.276;2022-10-31T05:39:32;27.58;;;10.52;;
39016;SDS011;24784;45.582;5.276;2022-10-31T05:41:57;25.38;;;10.60;;
39016;SDS011;24784;45.582;5.276;2022-10-31T05:44:23;23.77;;;10.13;;
39016;SDS011;24784;45.582;5.276;2022-10-31T05:46:49;35.03;;;12.02;;
39016;SDS011;24784;45.582;5.276;2022-10-31T05:49:14;24.38;;;9.30;;
39016;SDS011;24784;45.582;5.276;2022-10-31T05:51:42;24.48;;;9.73;;
39016;SDS011;24784;45.582;5.276;2022-10-31T05:54:08;30.60;;;11.10;;
39016;SDS011;24784;45.582;5.276;2022-10-31T05:56:33;26.70;;;9.55;;
39016;SDS011;24784;45.582;5.276;2022-10-31T05:58:59;31.10;;;10.00;;
39016;SDS011;24784;45.582;5.276;2022-10-31T06:01:25;29.77;;;10.25;;
39016;SDS011;24784;45.582;5.276;2022-10-31T06:03:50;27.77;;;10.40;;
39016;SDS011;24784;45.582;5.276;2022-10-31T06:06:16;23.77;;;10.82;;
39016;SDS011;24784;45.582;5.276;2022-10-31T06:08:42;29.95;;;11.77;;
39016;SDS011;24784;45.582;5.276;2022-10-31T06:11:07;28.02;;;11.45;;
39016;SDS011;24784;45.582;5.276;2022-10-31T06:13:33;27.35;;;11.18;;
39016;SDS011;24784;45.582;5.276;2022-10-31T06:15:59;29.75;;;11.55;;
39016;SDS011;24784;45.582;5.276;2022-10-31T06:18:24;27.00;;;11.00;;
39016;SDS011;24784;45.582;5.276;2022-10-31T06:20:50;27.58;;;11.73;;
39016;SDS011;24784;45.582;5.276;2022-10-31T06:23:16;26.35;;;10.80;;
39016;SDS011;24784;45.582;5.276;2022-10-31T06:25:41;30.95;;;11.82;;
39016;SDS011;24784;45.582;5.276;2022-10-31T06:28:07;23.90;;;11.25;;
39016;SDS011;24784;45.582;5.276;2022-10-31T06:30:33;30.00;;;11.88;;
39016;SDS011;24784;45.582;5.276;2022-10-31T06:33:05;25.45;;;10.43;;
39016;SDS011;24784;45.582;5.276;2022-10-31T06:35:31;20.98;;;10.85;;
39016;SDS011;24784;45.582;5.276;2022-10-31T06:37:57;34.20;;;11.27;;
39016;SDS011;24784;45.582;5.276;2022-10-31T06:40:22;29.63;;;10.93;;
39016;SDS011;24784;45.582;5.276;2022-10-31T06:43:00;27.35;;;10.98;;
39016;SDS011;24784;45.582;5.276;2022-10-31T06:45:26;25.73;;;12.00;;
39016;SDS011;24784;45.582;5.276;2022-10-31T06:47:53;26.92;;;11.40;;
39016;SDS011;24784;45.582;5.276;2022-10-31T06:50:20;27.65;;;10.75;;
39016;SDS011;24784;45.582;5.276;2022-10-31T06:52:50;26.35;;;10.77;;
39016;SDS011;24784;45.582;5.276;2022-10-31T06:55:19;27.20;;;10.25;;
39016;SDS011;24784;45.582;5.276;2022-10-31T06:57:53;28.90;;;10.93;;
39016;SDS011;24784;45.582;5.276;2022-10-31T07:00:24;32.17;;;10.52;;
39016;SDS011;24784;45.582;5.276;2022-10-31T07:02:57;30.20;;;11.48;;
39016;SDS011;24784;45.582;5.276;2022-10-31T07:05:28;19.50;;;10.75;;
39016;SDS011;24784;45.582;5.276;2022-10-31T07:07:57;32.42;;;10.48;;
39016;SDS011;24784;45.582;5.276;2022-10-31T07:10:25;28.92;;;10.45;;
39016;SDS011;24784;45.582;5.276;2022-10-31T07:12:56;23.60;;;10.75;;
39016;SDS011;24784;45.582;5.276;2022-10-31T07:15:26;24.38;;;10.90;;
39016;SDS011;24784;45.582;5.276;2022-10-31T07:17:54;27.48;;;10.38;;
39016;SDS011;24784;45.582;5.276;2022-10-31T07:20:26;20.42;;;10.77;;
39016;SDS011;24784;45.582;5.276;2022-10-31T07:22:52;22.98;;;10.65;;
39016;SDS011;24784;45.582;5.276;2022-10-31T07:25:18;22.95;;;10.43;;
39016;SDS011;24784;45.582;5.276;2022-10-31T07:27:43;25.25;;;10.68;;
39016;SDS011;24784;45.582;5.276;2022-10-31T07:30:10;25.85;;;11.30;;
39016;SDS011;24784;45.582;5.276;2022-10-31T07:32:40;34.17;;;12.50;;
39016;SDS011;24784;45.582;5.276;2022-10-31T07:35:10;34.22;;;12.10;;
39016;SDS011;24784;45.582;5.276;2022-10-31T07:37:37;24.17;;;11.30;;
39016;SDS011;24784;45.582;5.276;2022-10-31T07:40:04;30.45;;;11.07;;
39016;SDS011;24784;45.582;5.276;2022-10-31T07:42:37;29.10;;;12.55;;
39016;SDS011;24784;45.582;5.276;2022-10-31T07:45:04;25.85;;;11.48;;
39016;SDS011;24784;45.582;5.276;2022-10-31T07:48:04;32.85;;;11.77;;
39016;SDS011;24784;45.582;5.276;2022-10-31T07:50:27;29.77;;;11.30;;
39016;SDS011;24784;45.582;5.276;2022-10-31T07:53:00;30.20;;;11.80;;
39016;SDS011;24784;45.582;5.276;2022-10-31T07:55:30;26.27;;;10.82;;
39016;SDS011;24784;45.582;5.276;2022-10-31T08:00:26;23.60;;;11.05;;
39016;SDS011;24784;45.582;5.276;2022-10-31T08:05:28;27.75;;;9.98;;
39016;SDS011;24784;45.582;5.276;2022-10-31T08:07:55;33.17;;;10.77;;
39016;SDS011;24784;45.582;5.276;2022-10-31T08:10:23;24.58;;;9.93;;
39016;SDS011;24784;45.582;5.276;2022-10-31T08:13:00;21.52;;;9.98;;
39016;SDS011;24784;45.582;5.276;2022-10-31T08:15:29;27.65;;;10.25;;
39016;SDS011;24784;45.582;5.276;2022-10-31T08:17:55;20.70;;;10.75;;
39016;SDS011;24784;45.582;5.276;2022-10-31T08:20:21;26.13;;;10.38;;
39016;SDS011;24784;45.582;5.276;2022-10-31T08:22:53;25.10;;;10.48;;
39016;SDS011;24784;45.582;5.276;2022-10-31T08:25:26;27.23;;;9.55;;
39016;SDS011;24784;45.582;5.276;2022-10-31T08:27:54;24.45;;;10.77;;
39016;SDS011;24784;45.582;5.276;2022-10-31T08:30:21;31.13;;;9.90;;
39016;SDS011;24784;45.582;5.276;2022-10-31T08:32:56;31.30;;;10.43;;
39016;SDS011;24784;45.582;5.276;2022-10-31T08:35:25;22.60;;;9.85;;
39016;SDS011;24784;45.582;5.276;2022-10-31T08:37:52;27.70;;;9.93;;
39016;SDS011;24784;45.582;5.276;2022-10-31T08:40:19;22.63;;;10.27;;
39016;SDS011;24784;45.582;5.276;2022-10-31T08:42:45;31.45;;;9.10;;
39016;SDS011;24784;45.582;5.276;2022-10-31T08:45:10;24.45;;;10.02;;
39016;SDS011;24784;45.582;5.276;2022-10-31T08:47:36;27.65;;;9.13;;
39016;SDS011;24784;45.582;5.276;2022-10-31T08:50:02;25.73;;;9.38;;
39016;SDS011;24784;45.582;5.276;2022-10-31T08:52:28;20.15;;;9.55;;
39016;SDS011;24784;45.582;5.276;2022-10-31T08:54:53;25.65;;;9.57;;
39016;SDS011;24784;45.582;5.276;2022-10-31T08:57:19;30.27;;;9.38;;
39016;SDS011;24784;45.582;5.276;2022-10-31T08:59:45;31.88;;;9.07;;
39016;SDS011;24784;45.582;5.276;2022-10-31T09:02:11;28.67;;;11.82;;
39016;SDS011;24784;45.582;5.276;2022-10-31T09:04:36;32.03;;;9.93;;
39016;SDS011;24784;45.582;5.276;2022-10-31T09:07:02;30.88;;;10.10;;
39016;SDS011;24784;45.582;5.276;2022-10-31T09:09:28;26.85;;;9.73;;
39016;SDS011;24784;45.582;5.276;2022-10-31T09:11:53;27.50;;;8.85;;
39016;SDS011;24784;45.582;5.276;2022-10-31T09:14:19;23.45;;;8.48;;
39016;SDS011;24784;45.582;5.276;2022-10-31T09:16:45;20.20;;;8.68;;
39016;SDS011;24784;45.582;5.276;2022-10-31T09:19:10;20.85;;;9.23;;
39016;SDS011;24784;45.582;5.276;2022-10-31T09:21:36;27.27;;;9.20;;
39016;SDS011;24784;45.582;5.276;2022-10-31T09:24:02;23.83;;;9.40;;
39016;SDS011;24784;45.582;5.276;2022-10-31T09:26:27;26.83;;;8.75;;
39016;SDS011;24784;45.582;5.276;2022-10-31T09:28:53;25.42;;;8.10;;
39016;SDS011;24784;45.582;5.276;2022-10-31T09:31:19;22.42;;;8.48;;
39016;SDS011;24784;45.582;5.276;2022-10-31T09:33:44;28.52;;;9.70;;
39016;SDS011;24784;45.582;5.276;2022-10-31T09:36:10;23.40;;;8.35;;
39016;SDS011;24784;45.582;5.276;2022-10-31T09:38:36;28.77;;;9.40;;
39016;SDS011;24784;45.582;5.276;2022-10-31T09:41:06;23.35;;;8.75;;
39016;SDS011;24784;45.582;5.276;2022-10-31T09:46:35;23.65;;;7.85;;
39016;SDS011;24784;45.582;5.276;2022-10-31T09:51:51;19.27;;;7.70;;
39016;SDS011;24784;45.582;5.276;2022-10-31T09:54:35;24.13;;;8.68;;
39016;SDS011;24784;45.582;5.276;2022-10-31T09:57:12;28.45;;;8.35;;
39016;SDS011;24784;45.582;5.276;2022-10-31T09:59:44;27.13;;;7.97;;
39016;SDS011;24784;45.582;5.276;2022-10-31T10:02:14;30.55;;;8.02;;
39016;SDS011;24784;45.582;5.276;2022-10-31T10:10:02;20.35;;;7.60;;
39016;SDS011;24784;45.582;5.276;2022-10-31T10:13:04;18.63;;;7.13;;
39016;SDS011;24784;45.582;5.276;2022-10-31T10:16:11;18.08;;;7.22;;
39016;SDS011;24784;45.582;5.276;2022-10-31T10:19:06;19.40;;;7.82;;
39016;SDS011;24784;45.582;5.276;2022-10-31T10:30:12;24.90;;;6.72;;
39016;SDS011;24784;45.582;5.276;2022-10-31T10:35:31;24.25;;;6.00;;
39016;SDS011;24784;45.582;5.276;2022-10-31T10:41:12;24.27;;;6.75;;
39016;SDS011;24784;45.582;5.276;2022-10-31T10:43:50;28.30;;;7.63;;
39016;SDS011;24784;45.582;5.276;2022-10-31T10:49:41;18.70;;;6.82;;
39016;SDS011;24784;45.582;5.276;2022-10-31T10:52:15;25.75;;;7.55;;
39016;SDS011;24784;45.582;5.276;2022-10-31T11:00:32;20.60;;;7.10;;
39016;SDS011;24784;45.582;5.276;2022-10-31T11:03:01;24.08;;;5.97;;
39016;SDS011;24784;45.582;5.276;2022-10-31T11:07:59;26.83;;;7.18;;
39016;SDS011;24784;45.582;5.276;2022-10-31T11:10:25;23.77;;;5.95;;
39016;SDS011;24784;45.582;5.276;2022-10-31T11:12:59;24.08;;;7.00;;
39016;SDS011;24784;45.582;5.276;2022-10-31T11:15:37;25.43;;;6.13;;
39016;SDS011;24784;45.582;5.276;2022-10-31T11:18:22;29.52;;;5.88;;
39016;SDS011;24784;45.582;5.276;2022-10-31T11:20:57;19.80;;;5.90;;
39016;SDS011;24784;45.582;5.276;2022-10-31T11:23:26;20.73;;;5.60;;
39016;SDS011;24784;45.582;5.276;2022-10-31T11:26:05;25.42;;;6.35;;
39016;SDS011;24784;45.582;5.276;2022-10-31T11:28:43;20.20;;;5.97;;
39016;SDS011;24784;45.582;5.276;2022-10-31T11:31:11;18.65;;;6.20;;
39016;SDS011;24784;45.582;5.276;2022-10-31T11:33:44;28.52;;;6.32;;
39016;SDS011;24784;45.582;5.276;2022-10-31T11:36:14;16.80;;;5.60;;
39016;SDS011;24784;45.582;5.276;2022-10-31T11:38:46;16.13;;;5.97;;
39016;SDS011;24784;45.582;5.276;2022-10-31T11:41:13;17.13;;;6.25;;
39016;SDS011;24784;45.582;5.276;2022-10-31T11:43:52;22.25;;;5.88;;
39016;SDS011;24784;45.582;5.276;2022-10-31T11:46:25;25.33;;;6.85;;
39016;SDS011;24784;45.582;5.276;2022-10-31T11:48:59;17.73;;;6.53;;
39016;SDS011;24784;45.582;5.276;2022-10-31T11:51:30;25.67;;;6.15;;
39016;SDS011;24784;45.582;5.276;2022-10-31T11:53:59;18.95;;;6.28;;
39016;SDS011;24784;45.582;5.276;2022-10-31T11:56:27;32.00;;;5.78;;
39016;SDS011;24784;45.582;5.276;2022-10-31T11:59:04;22.48;;;5.75;;
39016;SDS011;24784;45.582;5.276;2022-10-31T12:01:39;23.50;;;5.72;;
39016;SDS011;24784;45.582;5.276;2022-10-31T12:04:11;19.95;;;5.88;;
39016;SDS011;24784;45.582;5.276;2022-10-31T12:06:41;19.60;;;6.43;;
39016;SDS011;24784;45.582;5.276;2022-10-31T12:09:16;22.70;;;5.43;;
39016;SDS011;24784;45.582;5.276;2022-10-31T12:26:23;17.05;;;6.65;;
39016;SDS011;24784;45.582;5.276;2022-10-31T12:28:57;24.95;;;5.72;;
39016;SDS011;24784;45.582;5.276;2022-10-31T12:31:39;21.52;;;5.75;;
39016;SDS011;24784;45.582;5.276;2022-10-31T12:53:57;21.92;;;6.13;;
39016;SDS011;24784;45.582;5.276;2022-10-31T12:59:09;21.27;;;5.53;;
39016;SDS011;24784;45.582;5.276;2022-10-31T13:01:47;29.67;;;5.68;;
39016;SDS011;24784;45.582;5.276;2022-10-31T13:04:51;15.18;;;5.45;;
39016;SDS011;24784;45.582;5.276;2022-10-31T13:07:34;29.15;;;6.20;;
39016;SDS011;24784;45.582;5.276;2022-10-31T13:10:21;27.58;;;6.15;;
39016;SDS011;24784;45.582;5.276;2022-10-31T13:12:51;24.10;;;5.78;;
39016;SDS011;24784;45.582;5.276;2022-10-31T13:15:23;15.40;;;5.25;;
39016;SDS011;24784;45.582;5.276;2022-10-31T13:18:05;14.57;;;5.13;;
39016;SDS011;24784;45.582;5.276;2022-10-31T13:20:43;20.33;;;5.43;;
39016;SDS011;24784;45.582;5.276;2022-10-31T13:31:01;16.38;;;5.05;;
39016;SDS011;24784;45.582;5.276;2022-10-31T13:33:28;18.20;;;4.88;;
39016;SDS011;24784;45.582;5.276;2022-10-31T13:44:22;18.92;;;4.57;;
39016;SDS011;24784;45.582;5.276;2022-10-31T13:46:49;22.90;;;4.18;;
39016;SDS011;24784;45.582;5.276;2022-10-31T13:49:23;15.60;;;5.15;;
39016;SDS011;24784;45.582;5.276;2022-10-31T13:51:49;15.75;;;4.80;;
39016;SDS011;24784;45.582;5.276;2022-10-31T13:56:49;20.73;;;5.70;;
39016;SDS011;24784;45.582;5.276;2022-10-31T13:59:17;16.15;;;4.68;;
39016;SDS011;24784;45.582;5.276;2022-10-31T14:01:47;15.80;;;4.22;;
39016;SDS011;24784;45.582;5.276;2022-10-31T14:07:07;12.77;;;4.38;;
39016;SDS011;24784;45.582;5.276;2022-10-31T14:12:29;22.17;;;4.88;;
39016;SDS011;24784;45.582;5.276;2022-10-31T14:15:04;27.17;;;5.43;;
39016;SDS011;24784;45.582;5.276;2022-10-31T14:17:40;18.75;;;4.72;;
39016;SDS011;24784;45.582;5.276;2022-10-31T14:22:43;23.55;;;4.38;;
39016;SDS011;24784;45.582;5.276;2022-10-31T14:27:59;13.32;;;4.88;;
39016;SDS011;24784;45.582;5.276;2022-10-31T14:30:27;18.85;;;4.78;;
39016;SDS011;24784;45.582;5.276;2022-10-31T14:32:55;18.77;;;4.13;;
39016;SDS011;24784;45.582;5.276;2022-10-31T14:35:25;29.23;;;4.65;;
39016;SDS011;24784;45.582;5.276;2022-10-31T14:38:16;13.63;;;5.03;;
39016;SDS011;24784;45.582;5.276;2022-10-31T14:52:12;9.95;;;3.65;;
39016;SDS011;24784;45.582;5.276;2022-10-31T14:54:44;11.00;;;3.85;;
39016;SDS011;24784;45.582;5.276;2022-10-31T14:57:22;32.67;;;12.55;;
39016;SDS011;24784;45.582;5.276;2022-10-31T15:00:01;29.67;;;13.23;;
39016;SDS011;24784;45.582;5.276;2022-10-31T15:02:32;18.95;;;5.35;;
39016;SDS011;24784;45.582;5.276;2022-10-31T15:05:08;14.65;;;4.35;;
39016;SDS011;24784;45.582;5.276;2022-10-31T15:07:35;78.60;;;41.72;;
39016;SDS011;24784;45.582;5.276;2022-10-31T15:10:06;43.70;;;22.75;;
39016;SDS011;24784;45.582;5.276;2022-10-31T15:12:44;22.50;;;8.00;;
39016;SDS011;24784;45.582;5.276;2022-10-31T15:15:10;19.83;;;5.88;;
39016;SDS011;24784;45.582;5.276;2022-10-31T15:17:41;19.42;;;5.63;;
39016;SDS011;24784;45.582;5.276;2022-10-31T15:20:12;18.02;;;5.38;;
39016;SDS011;24784;45.582;5.276;2022-10-31T15:22:48;17.30;;;5.20;;
39016;SDS011;24784;45.582;5.276;2022-10-31T15:25:24;18.70;;;4.18;;
39016;SDS011;24784;45.582;5.276;2022-10-31T15:27:52;13.55;;;4.60;;
39016;SDS011;24784;45.582;5.276;2022-10-31T15:30:19;20.10;;;5.15;;
39016;SDS011;24784;45.582;5.276;2022-10-31T15:32:47;14.95;;;5.25;;
39016;SDS011;24784;45.582;5.276;2022-10-31T15:35:21;16.17;;;4.47;;
39016;SDS011;24784;45.582;5.276;2022-10-31T15:37:52;14.48;;;4.93;;
39016;SDS011;24784;45.582;5.276;2022-10-31T15:40:19;20.83;;;5.90;;
39016;SDS011;24784;45.582;5.276;2022-10-31T15:42:56;18.02;;;5.95;;
39016;SDS011;24784;45.582;5.276;2022-10-31T15:45:25;17.92;;;4.50;;
39016;SDS011;24784;45.582;5.276;2022-10-31T15:47:57;14.75;;;4.60;;
39016;SDS011;24784;45.582;5.276;2022-10-31T15:50:34;13.73;;;4.68;;
39016;SDS011;24784;45.582;5.276;2022-10-31T15:53:03;17.27;;;6.10;;
39016;SDS011;24784;45.582;5.276;2022-10-31T15:55:32;15.43;;;4.88;;
39016;SDS011;24784;45.582;5.276;2022-10-31T15:58:10;14.43;;;4.90;;
39016;SDS011;24784;45.582;5.276;2022-10-31T16:00:38;11.10;;;4.15;;
39016;SDS011;24784;45.582;5.276;2022-10-31T16:03:26;14.13;;;4.57;;
39016;SDS011;24784;45.582;5.276;2022-10-31T16:05:58;12.80;;;4.88;;
39016;SDS011;24784;45.582;5.276;2022-10-31T16:11:02;11.77;;;5.32;;
39016;SDS011;24784;45.582;5.276;2022-10-31T16:13:51;15.32;;;5.57;;
39016;SDS011;24784;45.582;5.276;2022-10-31T16:16:32;19.15;;;5.47;;
39016;SDS011;24784;45.582;5.276;2022-10-31T16:19:05;13.50;;;5.00;;
39016;SDS011;24784;45.582;5.276;2022-10-31T16:21:37;12.27;;;4.93;;
39016;SDS011;24784;45.582;5.276;2022-10-31T16:26:41;12.77;;;5.13;;
39016;SDS011;24784;45.582;5.276;2022-10-31T16:29:27;15.32;;;4.78;;
39016;SDS011;24784;45.582;5.276;2022-10-31T16:31:57;12.90;;;4.47;;
39016;SDS011;24784;45.582;5.276;2022-10-31T16:34:23;18.45;;;4.82;;
39016;SDS011;24784;45.582;5.276;2022-10-31T16:36:49;15.45;;;5.68;;
39016;SDS011;24784;45.582;5.276;2022-10-31T16:39:15;25.45;;;5.22;;
39016;SDS011;24784;45.582;5.276;2022-10-31T16:41:42;12.07;;;5.32;;
39016;SDS011;24784;45.582;5.276;2022-10-31T16:44:32;15.88;;;5.50;;
39016;SDS011;24784;45.582;5.276;2022-10-31T16:49:40;17.17;;;5.07;;
39016;SDS011;24784;45.582;5.276;2022-10-31T16:52:12;20.67;;;5.15;;
39016;SDS011;24784;45.582;5.276;2022-10-31T16:54:37;17.27;;;5.88;;
39016;SDS011;24784;45.582;5.276;2022-10-31T16:57:04;11.93;;;4.65;;
39016;SDS011;24784;45.582;5.276;2022-10-31T16:59:31;30.35;;;5.00;;
39016;SDS011;24784;45.582;5.276;2022-10-31T17:02:01;16.40;;;5.43;;
39016;SDS011;24784;45.582;5.276;2022-10-31T17:04:28;25.08;;;6.72;;
39016;SDS011;24784;45.582;5.276;2022-10-31T17:06:54;29.38;;;5.13;;
39016;SDS011;24784;45.582;5.276;2022-10-31T17:09:19;16.17;;;5.38;;
39016;SDS011;24784;45.582;5.276;2022-10-31T17:11:46;17.00;;;4.97;;
39016;SDS011;24784;45.582;5.276;2022-10-31T17:14:14;14.52;;;4.60;;
39016;SDS011;24784;45.582;5.276;2022-10-31T17:16:41;18.88;;;4.60;;
39016;SDS011;24784;45.582;5.276;2022-10-31T17:19:09;16.75;;;5.45;;
39016;SDS011;24784;45.582;5.276;2022-10-31T17:21:36;15.95;;;4.72;;
39016;SDS011;24784;45.582;5.276;2022-10-31T17:24:02;11.93;;;4.97;;